sensor_id;sensor_type;location;lat;lon;timestamp;temperature;humidity
26099;DHT22;13860;52.370;6.764;2024-03-17T00:01:06;6.40;77.10
26099;DHT22;13860;52.370;6.764;2024-03-17T00:04:12;6.40;77.20
26099;DHT22;13860;52.370;6.764;2024-03-17T00:07:17;6.40;77.20
26099;DHT22;13860;52.370;6.764;2024-03-17T00:10:21;6.30;77.20
26099;DHT22;13860;52.370;6.764;2024-03-17T00:13:25;6.30;77.20
26099;DHT22;13860;52.370;6.764;2024-03-17T00:16:29;6.30;77.20
26099;DHT22;13860;52.370;6.764;2024-03-17T00:19:36;6.30;77.20
26099;DHT22;13860;52.370;6.764;2024-03-17T00:22:43;6.30;77.30
26099;DHT22;13860;52.370;6.764;2024-03-17T00:25:45;6.20;77.30
26099;DHT22;13860;52.370;6.764;2024-03-17T00:28:51;6.20;77.30
26099;DHT22;13860;52.370;6.764;2024-03-17T00:31:53;6.20;77.40
26099;DHT22;13860;52.370;6.764;2024-03-17T00:35:03;6.20;77.40
26099;DHT22;13860;52.370;6.764;2024-03-17T00:38:06;6.20;77.40
26099;DHT22;13860;52.370;6.764;2024-03-17T00:41:13;6.20;77.40
26099;DHT22;13860;52.370;6.764;2024-03-17T00:44:18;6.20;77.50
26099;DHT22;13860;52.370;6.764;2024-03-17T00:47:21;6.20;77.50
26099;DHT22;13860;52.370;6.764;2024-03-17T00:50:28;6.20;77.50
26099;DHT22;13860;52.370;6.764;2024-03-17T00:53:32;6.20;77.60
26099;DHT22;13860;52.370;6.764;2024-03-17T00:56:37;6.10;77.50
26099;DHT22;13860;52.370;6.764;2024-03-17T00:59:40;6.10;77.50
26099;DHT22;13860;52.370;6.764;2024-03-17T01:02:45;6.10;77.60
26099;DHT22;13860;52.370;6.764;2024-03-17T01:05:54;6.10;77.60
26099;DHT22;13860;52.370;6.764;2024-03-17T01:08:56;6.10;77.60
26099;DHT22;13860;52.370;6.764;2024-03-17T01:12:03;6.10;77.70
26099;DHT22;13860;52.370;6.764;2024-03-17T01:15:06;6.10;77.70
26099;DHT22;13860;52.370;6.764;2024-03-17T01:18:13;6.00;77.70
26099;DHT22;13860;52.370;6.764;2024-03-17T01:21:20;6.00;77.70
26099;DHT22;13860;52.370;6.764;2024-03-17T01:24:27;6.00;77.80
26099;DHT22;13860;52.370;6.764;2024-03-17T01:27:33;5.90;77.70
26099;DHT22;13860;52.370;6.764;2024-03-17T01:30:39;5.90;77.80
26099;DHT22;13860;52.370;6.764;2024-03-17T01:33:41;5.90;77.80
26099;DHT22;13860;52.370;6.764;2024-03-17T01:36:50;5.90;77.80
26099;DHT22;13860;52.370;6.764;2024-03-17T01:39:55;5.90;77.90
26099;DHT22;13860;52.370;6.764;2024-03-17T01:42:58;5.80;77.80
26099;DHT22;13860;52.370;6.764;2024-03-17T01:46:03;5.80;77.90
26099;DHT22;13860;52.370;6.764;2024-03-17T01:49:07;5.70;77.80
26099;DHT22;13860;52.370;6.764;2024-03-17T01:52:15;5.70;77.90
26099;DHT22;13860;52.370;6.764;2024-03-17T01:55:23;5.70;77.90
26099;DHT22;13860;52.370;6.764;2024-03-17T01:58:30;5.70;77.90
26099;DHT22;13860;52.370;6.764;2024-03-17T02:01:36;5.70;78.00
26099;DHT22;13860;52.370;6.764;2024-03-17T02:04:38;5.70;78.00
26099;DHT22;13860;52.370;6.764;2024-03-17T02:07:47;5.60;78.00
26099;DHT22;13860;52.370;6.764;2024-03-17T02:10:52;5.60;78.00
26099;DHT22;13860;52.370;6.764;2024-03-17T02:14:00;5.60;78.10
26099;DHT22;13860;52.370;6.764;2024-03-17T02:17:04;5.60;78.10
26099;DHT22;13860;52.370;6.764;2024-03-17T02:20:08;5.50;78.10
26099;DHT22;13860;52.370;6.764;2024-03-17T02:23:16;5.50;78.00
26099;DHT22;13860;52.370;6.764;2024-03-17T02:26:22;5.50;78.00
26099;DHT22;13860;52.370;6.764;2024-03-17T02:29:26;5.40;78.00
26099;DHT22;13860;52.370;6.764;2024-03-17T02:32:33;5.50;78.10
26099;DHT22;13860;52.370;6.764;2024-03-17T02:35:37;5.40;78.10
26099;DHT22;13860;52.370;6.764;2024-03-17T02:38:45;5.40;78.10
26099;DHT22;13860;52.370;6.764;2024-03-17T02:42:03;5.40;78.10
26099;DHT22;13860;52.370;6.764;2024-03-17T02:45:11;5.30;78.10
26099;DHT22;13860;52.370;6.764;2024-03-17T02:48:16;5.40;78.20
26099;DHT22;13860;52.370;6.764;2024-03-17T02:51:22;5.30;78.10
26099;DHT22;13860;52.370;6.764;2024-03-17T02:54:29;5.30;78.10
26099;DHT22;13860;52.370;6.764;2024-03-17T02:57:36;5.30;78.10
26099;DHT22;13860;52.370;6.764;2024-03-17T03:00:42;5.30;78.20
26099;DHT22;13860;52.370;6.764;2024-03-17T03:03:48;5.20;78.20
26099;DHT22;13860;52.370;6.764;2024-03-17T03:06:52;5.20;78.20
26099;DHT22;13860;52.370;6.764;2024-03-17T03:10:02;5.20;78.30
26099;DHT22;13860;52.370;6.764;2024-03-17T03:13:06;5.10;78.20
26099;DHT22;13860;52.370;6.764;2024-03-17T03:16:13;5.10;78.30
26099;DHT22;13860;52.370;6.764;2024-03-17T03:19:19;5.10;78.30
26099;DHT22;13860;52.370;6.764;2024-03-17T03:22:26;5.10;78.30
26099;DHT22;13860;52.370;6.764;2024-03-17T03:25:33;5.00;78.30
26099;DHT22;13860;52.370;6.764;2024-03-17T03:28:40;5.00;78.30
26099;DHT22;13860;52.370;6.764;2024-03-17T03:31:44;5.00;78.30
26099;DHT22;13860;52.370;6.764;2024-03-17T03:34:51;4.90;78.30
26099;DHT22;13860;52.370;6.764;2024-03-17T03:37:55;4.90;78.40
26099;DHT22;13860;52.370;6.764;2024-03-17T03:41:09;4.90;78.40
26099;DHT22;13860;52.370;6.764;2024-03-17T03:44:13;4.90;78.50
26099;DHT22;13860;52.370;6.764;2024-03-17T03:47:20;4.90;78.40
26099;DHT22;13860;52.370;6.764;2024-03-17T03:50:24;4.90;78.40
26099;DHT22;13860;52.370;6.764;2024-03-17T03:53:30;4.90;78.50
26099;DHT22;13860;52.370;6.764;2024-03-17T03:56:38;4.80;78.50
26099;DHT22;13860;52.370;6.764;2024-03-17T03:59:44;4.80;78.60
26099;DHT22;13860;52.370;6.764;2024-03-17T04:02:50;4.80;78.60
26099;DHT22;13860;52.370;6.764;2024-03-17T04:06:02;4.80;78.60
26099;DHT22;13860;52.370;6.764;2024-03-17T04:09:07;4.80;78.60
26099;DHT22;13860;52.370;6.764;2024-03-17T04:12:16;4.80;78.60
26099;DHT22;13860;52.370;6.764;2024-03-17T04:15:20;4.80;78.70
26099;DHT22;13860;52.370;6.764;2024-03-17T04:18:27;4.90;78.70
26099;DHT22;13860;52.370;6.764;2024-03-17T04:21:32;4.90;78.80
26099;DHT22;13860;52.370;6.764;2024-03-17T04:24:38;4.90;78.80
26099;DHT22;13860;52.370;6.764;2024-03-17T04:27:46;4.90;78.80
26099;DHT22;13860;52.370;6.764;2024-03-17T04:30:53;4.90;78.80
26099;DHT22;13860;52.370;6.764;2024-03-17T04:33:57;4.90;78.90
26099;DHT22;13860;52.370;6.764;2024-03-17T04:37:04;5.00;78.90
26099;DHT22;13860;52.370;6.764;2024-03-17T04:40:10;5.00;78.90
26099;DHT22;13860;52.370;6.764;2024-03-17T04:43:19;5.00;78.90
26099;DHT22;13860;52.370;6.764;2024-03-17T04:46:23;5.00;79.00
26099;DHT22;13860;52.370;6.764;2024-03-17T04:49:30;5.00;79.00
26099;DHT22;13860;52.370;6.764;2024-03-17T04:52:35;5.00;79.00
26099;DHT22;13860;52.370;6.764;2024-03-17T04:55:41;5.10;79.10
26099;DHT22;13860;52.370;6.764;2024-03-17T04:58:48;5.10;79.10
26099;DHT22;13860;52.370;6.764;2024-03-17T05:01:54;5.10;79.10
26099;DHT22;13860;52.370;6.764;2024-03-17T05:04:59;5.10;79.10
26099;DHT22;13860;52.370;6.764;2024-03-17T05:08:06;5.10;79.10
26099;DHT22;13860;52.370;6.764;2024-03-17T05:11:10;5.20;79.20
26099;DHT22;13860;52.370;6.764;2024-03-17T05:14:20;5.20;79.20
26099;DHT22;13860;52.370;6.764;2024-03-17T05:17:25;5.20;79.20
26099;DHT22;13860;52.370;6.764;2024-03-17T05:20:31;5.20;79.20
26099;DHT22;13860;52.370;6.764;2024-03-17T05:23:37;5.30;79.30
26099;DHT22;13860;52.370;6.764;2024-03-17T05:26:43;5.30;79.30
26099;DHT22;13860;52.370;6.764;2024-03-17T05:29:50;5.30;79.20
26099;DHT22;13860;52.370;6.764;2024-03-17T05:32:57;5.30;79.30
26099;DHT22;13860;52.370;6.764;2024-03-17T05:36:02;5.30;79.20
26099;DHT22;13860;52.370;6.764;2024-03-17T05:39:09;5.30;79.30
26099;DHT22;13860;52.370;6.764;2024-03-17T05:42:14;5.30;79.30
26099;DHT22;13860;52.370;6.764;2024-03-17T05:45:23;5.30;79.30
26099;DHT22;13860;52.370;6.764;2024-03-17T05:48:27;5.30;79.30
26099;DHT22;13860;52.370;6.764;2024-03-17T05:51:33;5.30;79.30
26099;DHT22;13860;52.370;6.764;2024-03-17T05:54:38;5.30;79.30
26099;DHT22;13860;52.370;6.764;2024-03-17T05:57:44;5.30;79.30
26099;DHT22;13860;52.370;6.764;2024-03-17T06:00:51;5.40;79.40
26099;DHT22;13860;52.370;6.764;2024-03-17T06:03:58;5.30;79.40
26099;DHT22;13860;52.370;6.764;2024-03-17T06:07:05;5.40;79.40
26099;DHT22;13860;52.370;6.764;2024-03-17T06:10:12;5.30;79.40
26099;DHT22;13860;52.370;6.764;2024-03-17T06:13:16;5.40;79.40
26099;DHT22;13860;52.370;6.764;2024-03-17T06:16:25;5.40;79.40
26099;DHT22;13860;52.370;6.764;2024-03-17T06:19:31;5.40;79.40
26099;DHT22;13860;52.370;6.764;2024-03-17T06:22:37;5.40;79.50
26099;DHT22;13860;52.370;6.764;2024-03-17T06:25:42;5.40;79.50
26099;DHT22;13860;52.370;6.764;2024-03-17T06:28:49;5.40;79.50
26099;DHT22;13860;52.370;6.764;2024-03-17T06:31:56;5.40;79.50
26099;DHT22;13860;52.370;6.764;2024-03-17T06:35:04;5.50;79.70
26099;DHT22;13860;52.370;6.764;2024-03-17T06:38:08;5.50;79.70
26099;DHT22;13860;52.370;6.764;2024-03-17T06:41:15;5.50;79.80
26099;DHT22;13860;52.370;6.764;2024-03-17T06:44:19;5.60;79.90
26099;DHT22;13860;52.370;6.764;2024-03-17T06:47:30;5.60;80.00
26099;DHT22;13860;52.370;6.764;2024-03-17T06:50:34;5.70;80.10
26099;DHT22;13860;52.370;6.764;2024-03-17T06:53:44;5.70;80.10
26099;DHT22;13860;52.370;6.764;2024-03-17T06:56:48;5.80;80.20
26099;DHT22;13860;52.370;6.764;2024-03-17T06:59:55;5.90;80.20
26099;DHT22;13860;52.370;6.764;2024-03-17T07:03:02;5.90;80.30
26099;DHT22;13860;52.370;6.764;2024-03-17T07:06:09;6.00;80.50
26099;DHT22;13860;52.370;6.764;2024-03-17T07:09:14;6.10;81.10
26099;DHT22;13860;52.370;6.764;2024-03-17T07:12:20;6.30;80.60
26099;DHT22;13860;52.370;6.764;2024-03-17T07:15:25;6.30;80.60
26099;DHT22;13860;52.370;6.764;2024-03-17T07:18:34;6.50;80.70
26099;DHT22;13860;52.370;6.764;2024-03-17T07:21:38;6.60;80.80
26099;DHT22;13860;52.370;6.764;2024-03-17T07:24:45;6.70;80.70
26099;DHT22;13860;52.370;6.764;2024-03-17T07:27:49;6.80;80.70
26099;DHT22;13860;52.370;6.764;2024-03-17T07:30:57;6.90;80.70
26099;DHT22;13860;52.370;6.764;2024-03-17T07:34:04;7.00;80.80
26099;DHT22;13860;52.370;6.764;2024-03-17T07:37:10;7.10;80.80
26099;DHT22;13860;52.370;6.764;2024-03-17T07:40:15;7.20;80.80
26099;DHT22;13860;52.370;6.764;2024-03-17T07:43:22;7.30;80.90
26099;DHT22;13860;52.370;6.764;2024-03-17T07:46:26;7.50;81.10
26099;DHT22;13860;52.370;6.764;2024-03-17T07:49:35;7.70;81.30
26099;DHT22;13860;52.370;6.764;2024-03-17T07:52:39;7.90;81.30
26099;DHT22;13860;52.370;6.764;2024-03-17T07:55:46;8.00;81.20
26099;DHT22;13860;52.370;6.764;2024-03-17T07:58:50;8.20;81.70
26099;DHT22;13860;52.370;6.764;2024-03-17T08:01:56;8.30;81.00
26099;DHT22;13860;52.370;6.764;2024-03-17T08:05:04;8.40;80.90
26099;DHT22;13860;52.370;6.764;2024-03-17T08:08:10;8.60;80.80
26099;DHT22;13860;52.370;6.764;2024-03-17T08:11:14;8.70;80.60
26099;DHT22;13860;52.370;6.764;2024-03-17T08:14:21;8.80;80.50
26099;DHT22;13860;52.370;6.764;2024-03-17T08:17:26;8.90;80.50
26099;DHT22;13860;52.370;6.764;2024-03-17T08:20:36;8.90;80.30
26099;DHT22;13860;52.370;6.764;2024-03-17T08:23:41;9.00;80.20
26099;DHT22;13860;52.370;6.764;2024-03-17T08:26:50;9.10;80.20
26099;DHT22;13860;52.370;6.764;2024-03-17T08:29:54;9.10;80.10
26099;DHT22;13860;52.370;6.764;2024-03-17T08:33:01;9.20;80.20
26099;DHT22;13860;52.370;6.764;2024-03-17T08:36:08;9.30;80.30
26099;DHT22;13860;52.370;6.764;2024-03-17T08:39:15;9.50;80.40
26099;DHT22;13860;52.370;6.764;2024-03-17T08:42:20;9.60;80.40
26099;DHT22;13860;52.370;6.764;2024-03-17T08:45:26;9.70;80.30
26099;DHT22;13860;52.370;6.764;2024-03-17T08:48:32;9.80;80.20
26099;DHT22;13860;52.370;6.764;2024-03-17T08:51:41;10.00;80.20
26099;DHT22;13860;52.370;6.764;2024-03-17T08:54:46;10.10;80.20
26099;DHT22;13860;52.370;6.764;2024-03-17T08:57:54;10.20;80.10
26099;DHT22;13860;52.370;6.764;2024-03-17T09:01:02;10.40;80.10
26099;DHT22;13860;52.370;6.764;2024-03-17T09:04:09;10.60;80.00
26099;DHT22;13860;52.370;6.764;2024-03-17T09:07:17;10.70;79.80
26099;DHT22;13860;52.370;6.764;2024-03-17T09:10:23;10.80;79.60
26099;DHT22;13860;52.370;6.764;2024-03-17T09:13:28;10.90;79.50
26099;DHT22;13860;52.370;6.764;2024-03-17T09:16:35;11.10;79.30
26099;DHT22;13860;52.370;6.764;2024-03-17T09:19:39;11.20;79.10
26099;DHT22;13860;52.370;6.764;2024-03-17T09:22:48;11.30;79.00
26099;DHT22;13860;52.370;6.764;2024-03-17T09:25:57;11.40;78.80
26099;DHT22;13860;52.370;6.764;2024-03-17T09:29:04;11.50;78.60
26099;DHT22;13860;52.370;6.764;2024-03-17T09:32:08;11.60;78.60
26099;DHT22;13860;52.370;6.764;2024-03-17T09:35:21;11.70;78.40
26099;DHT22;13860;52.370;6.764;2024-03-17T09:38:28;11.80;78.20
26099;DHT22;13860;52.370;6.764;2024-03-17T09:41:35;11.80;77.80
26099;DHT22;13860;52.370;6.764;2024-03-17T09:44:40;11.90;77.60
26099;DHT22;13860;52.370;6.764;2024-03-17T09:47:46;12.00;77.50
26099;DHT22;13860;52.370;6.764;2024-03-17T09:50:51;12.00;77.50
26099;DHT22;13860;52.370;6.764;2024-03-17T09:54:01;12.10;77.40
26099;DHT22;13860;52.370;6.764;2024-03-17T09:57:09;12.10;77.20
26099;DHT22;13860;52.370;6.764;2024-03-17T10:00:20;12.20;77.20
26099;DHT22;13860;52.370;6.764;2024-03-17T10:03:39;12.30;77.20
26099;DHT22;13860;52.370;6.764;2024-03-17T10:06:48;12.40;76.90
26099;DHT22;13860;52.370;6.764;2024-03-17T10:10:10;12.50;77.70
26099;DHT22;13860;52.370;6.764;2024-03-17T10:13:19;12.60;76.80
26099;DHT22;13860;52.370;6.764;2024-03-17T10:16:25;12.80;77.10
26099;DHT22;13860;52.370;6.764;2024-03-17T10:19:32;12.90;76.90
26099;DHT22;13860;52.370;6.764;2024-03-17T10:22:41;13.10;76.80
26099;DHT22;13860;52.370;6.764;2024-03-17T10:25:50;13.20;77.30
26099;DHT22;13860;52.370;6.764;2024-03-17T10:28:54;13.40;76.40
26099;DHT22;13860;52.370;6.764;2024-03-17T10:32:03;13.60;76.30
26099;DHT22;13860;52.370;6.764;2024-03-17T10:35:29;13.70;76.00
26099;DHT22;13860;52.370;6.764;2024-03-17T10:38:36;13.80;75.30
26099;DHT22;13860;52.370;6.764;2024-03-17T10:41:43;13.90;75.40
26099;DHT22;13860;52.370;6.764;2024-03-17T10:44:50;14.00;75.00
26099;DHT22;13860;52.370;6.764;2024-03-17T10:47:59;14.10;74.90
26099;DHT22;13860;52.370;6.764;2024-03-17T10:51:09;14.10;74.50
26099;DHT22;13860;52.370;6.764;2024-03-17T10:54:24;14.20;74.50
26099;DHT22;13860;52.370;6.764;2024-03-17T10:57:44;14.20;74.10
26099;DHT22;13860;52.370;6.764;2024-03-17T11:00:50;14.30;74.00
26099;DHT22;13860;52.370;6.764;2024-03-17T11:03:57;14.30;74.00
26099;DHT22;13860;52.370;6.764;2024-03-17T11:07:06;14.30;73.70
26099;DHT22;13860;52.370;6.764;2024-03-17T11:10:23;14.30;73.70
26099;DHT22;13860;52.370;6.764;2024-03-17T11:13:32;14.30;73.50
26099;DHT22;13860;52.370;6.764;2024-03-17T11:16:40;14.40;73.30
26099;DHT22;13860;52.370;6.764;2024-03-17T11:19:44;14.40;73.30
26099;DHT22;13860;52.370;6.764;2024-03-17T11:22:51;14.40;73.10
26099;DHT22;13860;52.370;6.764;2024-03-17T11:25:58;14.40;73.00
26099;DHT22;13860;52.370;6.764;2024-03-17T11:29:26;14.40;72.80
26099;DHT22;13860;52.370;6.764;2024-03-17T11:32:34;14.40;72.40
26099;DHT22;13860;52.370;6.764;2024-03-17T11:35:40;14.40;72.70
26099;DHT22;13860;52.370;6.764;2024-03-17T11:38:52;14.40;72.60
26099;DHT22;13860;52.370;6.764;2024-03-17T11:42:05;14.30;72.10
26099;DHT22;13860;52.370;6.764;2024-03-17T11:45:15;14.30;72.00
26099;DHT22;13860;52.370;6.764;2024-03-17T11:48:19;14.30;72.00
26099;DHT22;13860;52.370;6.764;2024-03-17T11:51:25;14.20;72.10
26099;DHT22;13860;52.370;6.764;2024-03-17T11:54:30;14.20;72.00
26099;DHT22;13860;52.370;6.764;2024-03-17T11:57:35;14.10;71.90
26099;DHT22;13860;52.370;6.764;2024-03-17T12:00:51;14.10;71.90
26099;DHT22;13860;52.370;6.764;2024-03-17T12:03:56;14.10;71.60
26099;DHT22;13860;52.370;6.764;2024-03-17T12:07:00;14.10;72.50
26099;DHT22;13860;52.370;6.764;2024-03-17T12:10:10;14.10;71.90
26099;DHT22;13860;52.370;6.764;2024-03-17T12:13:18;14.10;71.60
26099;DHT22;13860;52.370;6.764;2024-03-17T12:16:23;14.00;71.60
26099;DHT22;13860;52.370;6.764;2024-03-17T12:19:29;14.00;71.40
26099;DHT22;13860;52.370;6.764;2024-03-17T12:22:32;14.00;71.50
26099;DHT22;13860;52.370;6.764;2024-03-17T12:25:40;14.00;71.40
26099;DHT22;13860;52.370;6.764;2024-03-17T12:28:46;14.00;71.40
26099;DHT22;13860;52.370;6.764;2024-03-17T12:31:53;14.00;71.30
26099;DHT22;13860;52.370;6.764;2024-03-17T12:34:57;14.00;71.20
26099;DHT22;13860;52.370;6.764;2024-03-17T12:38:02;14.00;71.30
26099;DHT22;13860;52.370;6.764;2024-03-17T12:41:16;14.00;71.20
26099;DHT22;13860;52.370;6.764;2024-03-17T12:44:23;14.00;70.80
26099;DHT22;13860;52.370;6.764;2024-03-17T12:47:30;14.00;71.00
26099;DHT22;13860;52.370;6.764;2024-03-17T12:50:44;14.00;70.90
26099;DHT22;13860;52.370;6.764;2024-03-17T12:53:46;14.00;70.70
26099;DHT22;13860;52.370;6.764;2024-03-17T12:57:03;14.10;70.80
26099;DHT22;13860;52.370;6.764;2024-03-17T13:00:23;14.10;70.50
26099;DHT22;13860;52.370;6.764;2024-03-17T13:03:41;14.10;70.60
26099;DHT22;13860;52.370;6.764;2024-03-17T13:06:45;14.10;70.50
26099;DHT22;13860;52.370;6.764;2024-03-17T13:09:52;14.10;70.50
26099;DHT22;13860;52.370;6.764;2024-03-17T13:13:01;14.10;70.40
26099;DHT22;13860;52.370;6.764;2024-03-17T13:16:09;14.10;70.20
26099;DHT22;13860;52.370;6.764;2024-03-17T13:19:17;14.20;70.20
26099;DHT22;13860;52.370;6.764;2024-03-17T13:22:23;14.20;70.10
26099;DHT22;13860;52.370;6.764;2024-03-17T13:25:29;14.20;70.20
26099;DHT22;13860;52.370;6.764;2024-03-17T13:28:38;14.20;70.00
26099;DHT22;13860;52.370;6.764;2024-03-17T13:31:42;14.20;69.90
26099;DHT22;13860;52.370;6.764;2024-03-17T13:34:51;14.20;70.40
26099;DHT22;13860;52.370;6.764;2024-03-17T13:37:57;14.30;69.60
26099;DHT22;13860;52.370;6.764;2024-03-17T13:41:04;14.30;69.70
26099;DHT22;13860;52.370;6.764;2024-03-17T13:44:10;14.30;69.60
26099;DHT22;13860;52.370;6.764;2024-03-17T13:47:16;14.30;69.60
26099;DHT22;13860;52.370;6.764;2024-03-17T13:50:24;14.40;69.60
26099;DHT22;13860;52.370;6.764;2024-03-17T13:53:30;14.40;69.50
26099;DHT22;13860;52.370;6.764;2024-03-17T13:56:35;14.40;69.60
26099;DHT22;13860;52.370;6.764;2024-03-17T13:59:41;14.40;69.40
26099;DHT22;13860;52.370;6.764;2024-03-17T14:02:46;14.40;69.30
26099;DHT22;13860;52.370;6.764;2024-03-17T14:05:55;14.40;69.10
26099;DHT22;13860;52.370;6.764;2024-03-17T14:09:00;14.50;69.10
26099;DHT22;13860;52.370;6.764;2024-03-17T14:12:07;14.40;69.10
26099;DHT22;13860;52.370;6.764;2024-03-17T14:15:13;14.40;69.00
26099;DHT22;13860;52.370;6.764;2024-03-17T14:18:20;14.40;68.90
26099;DHT22;13860;52.370;6.764;2024-03-17T14:21:26;14.40;68.80
26099;DHT22;13860;52.370;6.764;2024-03-17T14:24:33;14.40;68.70
26099;DHT22;13860;52.370;6.764;2024-03-17T14:27:38;14.40;68.90
26099;DHT22;13860;52.370;6.764;2024-03-17T14:30:44;14.40;68.80
26099;DHT22;13860;52.370;6.764;2024-03-17T14:33:49;14.40;68.90
26099;DHT22;13860;52.370;6.764;2024-03-17T14:36:58;14.40;68.80
26099;DHT22;13860;52.370;6.764;2024-03-17T14:40:03;14.30;68.60
26099;DHT22;13860;52.370;6.764;2024-03-17T14:43:14;14.30;68.70
26099;DHT22;13860;52.370;6.764;2024-03-17T14:46:19;14.30;68.70
26099;DHT22;13860;52.370;6.764;2024-03-17T14:49:25;14.30;69.30
26099;DHT22;13860;52.370;6.764;2024-03-17T14:52:32;14.30;68.60
26099;DHT22;13860;52.370;6.764;2024-03-17T14:55:40;14.30;68.60
26099;DHT22;13860;52.370;6.764;2024-03-17T14:58:45;14.30;68.60
26099;DHT22;13860;52.370;6.764;2024-03-17T15:01:52;14.30;68.60
26099;DHT22;13860;52.370;6.764;2024-03-17T15:04:57;14.30;68.50
26099;DHT22;13860;52.370;6.764;2024-03-17T15:08:06;14.30;68.50
26099;DHT22;13860;52.370;6.764;2024-03-17T15:11:11;14.20;68.40
26099;DHT22;13860;52.370;6.764;2024-03-17T15:14:17;14.20;68.50
26099;DHT22;13860;52.370;6.764;2024-03-17T15:17:21;14.20;68.50
26099;DHT22;13860;52.370;6.764;2024-03-17T15:20:28;14.20;68.50
26099;DHT22;13860;52.370;6.764;2024-03-17T15:23:35;14.20;68.50
26099;DHT22;13860;52.370;6.764;2024-03-17T15:26:43;14.20;68.40
26099;DHT22;13860;52.370;6.764;2024-03-17T15:29:47;14.10;68.40
26099;DHT22;13860;52.370;6.764;2024-03-17T15:32:54;14.10;68.40
26099;DHT22;13860;52.370;6.764;2024-03-17T15:35:59;14.10;68.50
26099;DHT22;13860;52.370;6.764;2024-03-17T15:39:09;14.10;68.50
26099;DHT22;13860;52.370;6.764;2024-03-17T15:42:15;14.00;68.40
26099;DHT22;13860;52.370;6.764;2024-03-17T15:45:21;14.00;68.40
26099;DHT22;13860;52.370;6.764;2024-03-17T15:48:26;14.00;68.40
26099;DHT22;13860;52.370;6.764;2024-03-17T15:51:33;14.00;68.40
26099;DHT22;13860;52.370;6.764;2024-03-17T15:54:40;14.00;68.50
26099;DHT22;13860;52.370;6.764;2024-03-17T15:57:47;13.90;68.30
26099;DHT22;13860;52.370;6.764;2024-03-17T16:00:51;13.90;68.40
26099;DHT22;13860;52.370;6.764;2024-03-17T16:03:57;13.90;68.40
26099;DHT22;13860;52.370;6.764;2024-03-17T16:07:04;13.80;68.30
26099;DHT22;13860;52.370;6.764;2024-03-17T16:10:18;13.80;68.30
26099;DHT22;13860;52.370;6.764;2024-03-17T16:13:24;13.70;68.10
26099;DHT22;13860;52.370;6.764;2024-03-17T16:16:30;13.70;68.20
26099;DHT22;13860;52.370;6.764;2024-03-17T16:19:35;13.70;68.30
26099;DHT22;13860;52.370;6.764;2024-03-17T16:22:45;13.70;68.30
26099;DHT22;13860;52.370;6.764;2024-03-17T16:25:56;13.60;68.20
26099;DHT22;13860;52.370;6.764;2024-03-17T16:29:11;13.60;68.20
26099;DHT22;13860;52.370;6.764;2024-03-17T16:32:16;13.60;68.10
26099;DHT22;13860;52.370;6.764;2024-03-17T16:35:22;13.50;68.20
26099;DHT22;13860;52.370;6.764;2024-03-17T16:38:28;13.50;68.10
26099;DHT22;13860;52.370;6.764;2024-03-17T16:41:38;13.50;68.10
26099;DHT22;13860;52.370;6.764;2024-03-17T16:44:45;13.40;68.00
26099;DHT22;13860;52.370;6.764;2024-03-17T16:47:54;13.40;68.10
26099;DHT22;13860;52.370;6.764;2024-03-17T16:50:59;13.40;68.10
26099;DHT22;13860;52.370;6.764;2024-03-17T16:54:06;13.30;68.10
26099;DHT22;13860;52.370;6.764;2024-03-17T16:57:14;13.30;68.10
26099;DHT22;13860;52.370;6.764;2024-03-17T17:00:20;13.20;68.10
26099;DHT22;13860;52.370;6.764;2024-03-17T17:03:27;13.20;68.10
26099;DHT22;13860;52.370;6.764;2024-03-17T17:06:37;13.20;68.20
26099;DHT22;13860;52.370;6.764;2024-03-17T17:09:42;13.20;68.80
26099;DHT22;13860;52.370;6.764;2024-03-17T17:12:51;13.20;68.20
26099;DHT22;13860;52.370;6.764;2024-03-17T17:15:56;13.10;68.10
26099;DHT22;13860;52.370;6.764;2024-03-17T17:19:04;13.10;68.80
26099;DHT22;13860;52.370;6.764;2024-03-17T17:22:12;13.10;68.20
26099;DHT22;13860;52.370;6.764;2024-03-17T17:25:19;13.10;68.10
26099;DHT22;13860;52.370;6.764;2024-03-17T17:28:27;13.10;68.20
26099;DHT22;13860;52.370;6.764;2024-03-17T17:31:33;13.10;68.20
26099;DHT22;13860;52.370;6.764;2024-03-17T17:34:38;13.10;68.20
26099;DHT22;13860;52.370;6.764;2024-03-17T17:37:45;13.00;68.20
26099;DHT22;13860;52.370;6.764;2024-03-17T17:40:49;13.00;68.10
26099;DHT22;13860;52.370;6.764;2024-03-17T17:43:58;13.00;68.10
26099;DHT22;13860;52.370;6.764;2024-03-17T17:47:03;13.00;68.10
26099;DHT22;13860;52.370;6.764;2024-03-17T17:50:09;12.90;68.10
26099;DHT22;13860;52.370;6.764;2024-03-17T17:53:14;12.90;68.10
26099;DHT22;13860;52.370;6.764;2024-03-17T17:56:21;12.90;68.20
26099;DHT22;13860;52.370;6.764;2024-03-17T17:59:28;12.90;68.20
26099;DHT22;13860;52.370;6.764;2024-03-17T18:02:34;12.80;68.10
26099;DHT22;13860;52.370;6.764;2024-03-17T18:05:38;12.80;68.20
26099;DHT22;13860;52.370;6.764;2024-03-17T18:08:46;12.80;68.20
26099;DHT22;13860;52.370;6.764;2024-03-17T18:11:50;12.80;68.30
26099;DHT22;13860;52.370;6.764;2024-03-17T18:14:59;12.70;68.20
26099;DHT22;13860;52.370;6.764;2024-03-17T18:18:04;12.80;68.20
26099;DHT22;13860;52.370;6.764;2024-03-17T18:21:11;12.70;68.20
26099;DHT22;13860;52.370;6.764;2024-03-17T18:24:18;12.70;68.30
26099;DHT22;13860;52.370;6.764;2024-03-17T18:27:25;12.60;68.30
26099;DHT22;13860;52.370;6.764;2024-03-17T18:30:32;12.60;68.30
26099;DHT22;13860;52.370;6.764;2024-03-17T18:33:39;12.60;68.30
26099;DHT22;13860;52.370;6.764;2024-03-17T18:36:45;12.60;68.40
26099;DHT22;13860;52.370;6.764;2024-03-17T18:39:51;12.60;68.40
26099;DHT22;13860;52.370;6.764;2024-03-17T18:42:56;12.50;68.40
26099;DHT22;13860;52.370;6.764;2024-03-17T18:46:11;12.50;68.40
26099;DHT22;13860;52.370;6.764;2024-03-17T18:49:15;12.50;68.40
26099;DHT22;13860;52.370;6.764;2024-03-17T18:52:22;12.50;68.50
26099;DHT22;13860;52.370;6.764;2024-03-17T18:55:26;12.50;68.50
26099;DHT22;13860;52.370;6.764;2024-03-17T18:58:32;12.40;68.60
26099;DHT22;13860;52.370;6.764;2024-03-17T19:01:40;12.40;68.60
26099;DHT22;13860;52.370;6.764;2024-03-17T19:04:47;12.40;68.60
26099;DHT22;13860;52.370;6.764;2024-03-17T19:07:51;12.40;69.30
26099;DHT22;13860;52.370;6.764;2024-03-17T19:10:57;12.30;68.70
26099;DHT22;13860;52.370;6.764;2024-03-17T19:14:03;12.30;68.70
26099;DHT22;13860;52.370;6.764;2024-03-17T19:17:15;12.30;68.80
26099;DHT22;13860;52.370;6.764;2024-03-17T19:20:20;12.30;68.90
26099;DHT22;13860;52.370;6.764;2024-03-17T19:23:26;12.30;68.80
26099;DHT22;13860;52.370;6.764;2024-03-17T19:26:30;12.20;68.90
26099;DHT22;13860;52.370;6.764;2024-03-17T19:29:37;12.20;68.90
26099;DHT22;13860;52.370;6.764;2024-03-17T19:32:44;12.20;69.00
26099;DHT22;13860;52.370;6.764;2024-03-17T19:35:53;12.20;69.00
26099;DHT22;13860;52.370;6.764;2024-03-17T19:38:58;12.20;69.00
26099;DHT22;13860;52.370;6.764;2024-03-17T19:42:04;12.10;69.10
26099;DHT22;13860;52.370;6.764;2024-03-17T19:45:09;12.10;69.20
26099;DHT22;13860;52.370;6.764;2024-03-17T19:48:18;12.10;69.20